Justin, Texas
Current Conditions -  °F | °C
As of 9:53 AM on Thursday 27 Nov 2014 (Local Time) from KAFW Reporting Station
Clear Clear  
Wind Chill: 44°   Ceiling: Unl
Heat Index: 44°   Visibility: 10mi
Dew Point: 27°   Wind: 3mph
Humidity: 51%   Direction: NA
Pressure: 30.55"   Gusts: NA
Location:  33.08°N, 97.3°W
Report Text: KAFW 271553Z VRB03KT 10SM CLR 07/M03 A3055 RMK AO2 SLP352 T00671028
Loading
Personal Weather Stations






























Interactive Weather Map New forecast layout! Learn more

10-Day Weather Forecast

Advertisements
Track Severe Weather on mobile